createdAt,value
2022-11-18T00:01:37.596Z,39.72
2022-11-18T00:04:04.356Z,42.20
2022-11-18T00:06:31.319Z,38.83
2022-11-18T00:08:59.422Z,39.85
2022-11-18T00:11:27.162Z,39.92
2022-11-18T00:13:53.927Z,39.53
2022-11-18T00:16:20.588Z,39.65
2022-11-18T00:18:47.224Z,38.22
2022-11-18T00:21:14.013Z,37.85
2022-11-18T00:23:41.087Z,38.58
2022-11-18T00:26:14.711Z,36.45
2022-11-18T00:28:42.315Z,35.90
2022-11-18T00:31:11.283Z,36.55
2022-11-18T00:33:39.136Z,34.53
2022-11-18T00:36:08.538Z,34.60
2022-11-18T00:38:35.197Z,34.83
2022-11-18T00:41:03.979Z,33.50
2022-11-18T00:43:31.067Z,33.90
2022-11-18T00:45:58.125Z,36.47
2022-11-18T00:48:25.344Z,35.50
2022-11-18T00:50:54.585Z,34.47
2022-11-18T00:53:23.061Z,32.60
2022-11-18T00:55:49.892Z,35.05
2022-11-18T00:58:17.130Z,33.72
2022-11-18T01:00:46.085Z,32.72
2022-11-18T01:03:13.264Z,33.05
2022-11-18T01:05:40.494Z,35.45
2022-11-18T01:08:08.411Z,32.63
2022-11-18T01:10:36.224Z,31.25
2022-11-18T01:13:03.852Z,33.45
2022-11-18T01:15:30.511Z,33.90
2022-11-18T01:17:57.203Z,33.40
2022-11-18T01:20:23.885Z,33.53
2022-11-18T01:22:50.531Z,31.92
2022-11-18T01:25:17.260Z,31.70
2022-11-18T01:27:43.935Z,32.03
2022-11-18T01:30:11.061Z,31.30
2022-11-18T01:32:38.177Z,31.60
2022-11-18T01:35:05.185Z,31.30
2022-11-18T01:37:31.881Z,32.47
2022-11-18T01:39:58.571Z,31.70
2022-11-18T01:42:25.694Z,30.65
2022-11-18T01:45:26.378Z,30.90
2022-11-18T01:48:02.523Z,30.58
2022-11-18T01:50:30.672Z,32.55
2022-11-18T01:53:02.805Z,30.88
2022-11-18T01:55:33.682Z,32.22
2022-11-18T01:58:10.713Z,32.53
2022-11-18T02:00:38.360Z,33.40
2022-11-18T02:03:05.792Z,31.80
2022-11-18T02:05:34.648Z,31.80
2022-11-18T02:08:03.015Z,34.38
2022-11-18T02:10:29.676Z,32.53
2022-11-18T02:12:56.998Z,34.08
2022-11-18T02:16:02.590Z,32.75
2022-11-18T02:18:57.485Z,32.95
2022-11-18T02:21:24.495Z,31.60
2022-11-18T02:23:56.958Z,31.45
2022-11-18T02:26:55.053Z,33.35
2022-11-18T02:29:27.383Z,32.97
2022-11-18T02:32:14.696Z,31.52
2022-11-18T02:34:53.114Z,32.47
2022-11-18T02:37:37.437Z,30.98
2022-11-18T02:40:35.492Z,31.40
2022-11-18T02:43:09.686Z,32.15
2022-11-18T02:45:38.610Z,31.23
2022-11-18T02:48:10.682Z,32.35
2022-11-18T02:50:41.299Z,31.02
2022-11-18T02:53:13.450Z,33.53
2022-11-18T02:55:41.368Z,33.05
2022-11-18T02:58:09.158Z,34.85
2022-11-18T03:00:36.501Z,34.00
2022-11-18T03:03:25.530Z,35.05
2022-11-18T03:06:07.424Z,35.40
2022-11-18T03:09:10.626Z,37.00
2022-11-18T03:12:00.501Z,38.55
2022-11-18T03:14:45.762Z,38.05
2022-11-18T03:17:39.310Z,40.73
2022-11-18T03:20:24.283Z,38.60
2022-11-18T03:22:55.833Z,40.80
2022-11-18T03:25:49.749Z,40.00
2022-11-18T03:28:32.298Z,41.05
2022-11-18T03:31:06.850Z,38.40
2022-11-18T03:33:37.798Z,42.17
2022-11-18T03:36:07.822Z,40.95
2022-11-18T03:38:39.758Z,39.78
2022-11-18T03:41:10.409Z,40.33
2022-11-18T03:43:41.495Z,40.40
2022-11-18T03:46:19.202Z,40.58
2022-11-18T03:48:52.698Z,42.83
2022-11-18T03:51:26.259Z,42.13
2022-11-18T03:54:00.088Z,42.78
2022-11-18T03:56:32.038Z,43.17
2022-11-18T03:58:58.678Z,42.83
2022-11-18T04:01:35.814Z,43.17
2022-11-18T04:04:02.863Z,42.97
2022-11-18T04:06:45.983Z,43.65
2022-11-18T04:09:23.789Z,45.40
2022-11-18T04:11:55.576Z,47.92
2022-11-18T04:14:22.417Z,48.47
2022-11-18T04:16:52.272Z,47.75
2022-11-18T04:19:19.304Z,50.17
2022-11-18T04:21:50.604Z,49.33
2022-11-18T04:24:17.255Z,49.00
2022-11-18T04:26:44.698Z,50.55
2022-11-18T04:29:11.330Z,49.30
2022-11-18T04:31:37.987Z,53.85
2022-11-18T04:34:04.674Z,53.78
2022-11-18T04:36:31.357Z,56.38
2022-11-18T04:38:58.064Z,58.50
2022-11-18T04:41:25.221Z,57.92
2022-11-18T04:43:51.906Z,58.63
2022-11-18T04:46:18.608Z,59.55
2022-11-18T04:48:45.674Z,59.45
2022-11-18T04:51:12.328Z,58.65
2022-11-18T04:53:38.961Z,61.47
2022-11-18T04:56:07.299Z,57.38
2022-11-18T04:58:33.971Z,61.95
2022-11-18T05:01:01.219Z,59.80
2022-11-18T05:03:27.978Z,61.35
2022-11-18T05:05:54.637Z,61.67
2022-11-18T05:08:21.297Z,62.13
2022-11-18T05:10:47.952Z,65.22
2022-11-18T05:13:14.597Z,59.08
2022-11-18T05:15:41.308Z,60.20
2022-11-18T05:18:11.855Z,59.78
2022-11-18T05:20:41.527Z,60.78
2022-11-18T05:23:08.620Z,58.55
2022-11-18T05:25:35.911Z,60.00
2022-11-18T05:28:02.585Z,60.47
2022-11-18T05:30:29.201Z,57.10
2022-11-18T05:32:55.879Z,59.88
2022-11-18T05:35:22.550Z,58.90
2022-11-18T05:37:49.234Z,56.72
2022-11-18T05:40:16.056Z,52.83
2022-11-18T05:42:42.718Z,53.35
2022-11-18T05:45:09.534Z,54.53
2022-11-18T05:47:36.232Z,53.30
2022-11-18T05:50:03.004Z,52.75
2022-11-18T05:52:29.650Z,51.67
2022-11-18T05:54:56.354Z,49.13
2022-11-18T05:57:23.008Z,48.53
2022-11-18T05:59:49.660Z,45.67
2022-11-18T06:02:21.649Z,45.33
2022-11-18T06:04:57.490Z,42.58
2022-11-18T06:07:39.296Z,43.58
2022-11-18T06:10:06.631Z,41.15
2022-11-18T06:12:40.492Z,39.50
2022-11-18T06:15:21.233Z,39.05
2022-11-18T06:18:06.504Z,39.67
2022-11-18T06:20:35.814Z,37.40
2022-11-18T06:23:02.510Z,38.20
2022-11-18T06:25:29.864Z,35.47
2022-11-18T06:27:59.691Z,36.25
2022-11-18T06:30:26.380Z,36.50
2022-11-18T06:32:53.146Z,35.25
2022-11-18T06:35:20.021Z,36.63
2022-11-18T06:37:47.253Z,37.50
2022-11-18T06:40:14.318Z,34.65
2022-11-18T06:42:40.999Z,36.85
2022-11-18T06:45:11.235Z,37.65
2022-11-18T06:47:38.089Z,35.58
2022-11-18T06:50:05.638Z,34.35
2022-11-18T06:52:32.331Z,36.17
2022-11-18T06:54:59.034Z,34.45
2022-11-18T06:57:25.707Z,34.10
2022-11-18T06:59:53.268Z,34.55
2022-11-18T07:02:22.127Z,35.17
2022-11-18T07:04:48.916Z,34.58
2022-11-18T07:07:15.781Z,34.78
2022-11-18T07:09:42.551Z,35.00
2022-11-18T07:12:11.901Z,34.95
2022-11-18T07:14:38.634Z,35.60
2022-11-18T07:17:05.388Z,35.65
2022-11-18T07:19:35.823Z,35.05
2022-11-18T07:22:03.068Z,36.40
2022-11-18T07:24:29.753Z,36.13
2022-11-18T07:26:58.860Z,35.92
2022-11-18T07:29:25.712Z,34.92
2022-11-18T07:31:52.413Z,35.17
2022-11-18T07:34:19.135Z,36.03
2022-11-18T07:36:45.879Z,34.50
2022-11-18T07:39:12.689Z,34.90
2022-11-18T07:41:40.557Z,36.35
2022-11-18T07:44:07.444Z,35.88
2022-11-18T07:46:36.549Z,36.75
2022-11-18T07:49:06.132Z,34.90
2022-11-18T07:51:35.499Z,36.75
2022-11-18T07:54:06.805Z,35.97
2022-11-18T07:56:33.706Z,36.97
2022-11-18T07:59:00.444Z,35.35
2022-11-18T08:01:27.381Z,35.22
2022-11-18T08:03:54.413Z,34.22
2022-11-18T08:06:21.227Z,34.72
2022-11-18T08:08:48.566Z,33.30
2022-11-18T08:11:22.319Z,33.78
2022-11-18T08:13:50.211Z,34.67
2022-11-18T08:16:22.504Z,33.95
2022-11-18T08:18:49.576Z,32.90
2022-11-18T08:21:18.189Z,34.72
2022-11-18T08:23:50.256Z,34.60
2022-11-18T08:26:16.955Z,33.13
2022-11-18T08:28:45.031Z,33.72
2022-11-18T08:31:30.891Z,31.90
2022-11-18T08:33:59.812Z,32.78
2022-11-18T08:36:28.533Z,32.97
2022-11-18T08:38:57.296Z,32.78
2022-11-18T08:41:28.123Z,34.55
2022-11-18T08:43:54.886Z,31.45
2022-11-18T08:46:21.545Z,30.98
2022-11-18T08:48:48.399Z,32.40
2022-11-18T08:51:15.483Z,31.27
2022-11-18T08:53:42.201Z,31.05
2022-11-18T08:56:15.177Z,31.73
2022-11-18T08:58:42.598Z,32.17
2022-11-18T09:01:09.473Z,31.33
2022-11-18T09:03:36.302Z,32.08
2022-11-18T09:06:10.297Z,32.30
2022-11-18T09:08:37.678Z,31.35
2022-11-18T09:11:08.922Z,31.42
2022-11-18T09:16:27.920Z,31.35
2022-11-18T09:18:56.832Z,30.42
2022-11-18T09:21:24.444Z,30.00
2022-11-18T09:23:52.336Z,28.77
2022-11-18T09:26:21.845Z,28.98
2022-11-18T09:28:48.597Z,27.50
2022-11-18T09:31:17.515Z,27.05
2022-11-18T09:33:45.297Z,25.13
2022-11-18T09:36:15.464Z,27.45
2022-11-18T09:38:42.212Z,26.67
2022-11-18T09:41:36.885Z,25.13
2022-11-18T09:44:12.634Z,26.73
2022-11-18T09:46:48.575Z,24.52
2022-11-18T09:49:24.341Z,22.75
2022-11-18T09:51:52.406Z,21.80
2022-11-18T09:54:28.247Z,20.10
2022-11-18T09:56:56.240Z,25.70
2022-11-18T09:59:26.674Z,18.83
2022-11-18T10:01:57.486Z,15.80
2022-11-18T10:04:24.268Z,16.33
2022-11-18T10:06:51.043Z,16.67
2022-11-18T10:09:25.092Z,15.07
2022-11-18T10:12:02.631Z,14.50
2022-11-18T10:14:46.308Z,13.13
2022-11-18T10:17:43.291Z,15.75
2022-11-18T10:20:42.275Z,14.68
2022-11-18T10:23:18.555Z,13.75
2022-11-18T10:25:45.349Z,13.98
2022-11-18T10:28:29.539Z,13.52
2022-11-18T10:31:08.197Z,19.92
2022-11-18T10:33:36.058Z,13.95
2022-11-18T10:36:12.781Z,13.60
2022-11-18T10:38:39.454Z,13.30
2022-11-18T10:41:18.450Z,12.50
2022-11-18T10:43:49.603Z,14.82
2022-11-18T10:46:16.260Z,12.25
2022-11-18T10:48:43.154Z,13.60
2022-11-18T10:51:24.403Z,12.77
2022-11-18T10:53:51.344Z,12.15
2022-11-18T10:56:18.067Z,14.85
2022-11-18T10:58:51.409Z,12.70
2022-11-18T11:01:27.523Z,12.23
2022-11-18T11:04:01.975Z,12.95
2022-11-18T11:06:32.899Z,18.42
2022-11-18T11:09:07.178Z,13.90
2022-11-18T11:11:40.407Z,14.48
2022-11-18T11:14:24.662Z,16.15
2022-11-18T11:17:04.239Z,15.65
2022-11-18T11:20:00.817Z,15.48
2022-11-18T11:22:28.546Z,16.00
2022-11-18T11:24:56.419Z,15.00
2022-11-18T11:30:46.663Z,14.63
2022-11-18T11:33:26.191Z,14.85
2022-11-18T11:36:09.296Z,14.13
2022-11-18T11:38:42.192Z,15.30
2022-11-18T11:41:26.222Z,14.07
2022-11-18T11:44:37.361Z,14.50
2022-11-18T11:47:25.023Z,13.80
2022-11-18T11:50:23.305Z,16.25
2022-11-18T11:52:58.169Z,15.07
2022-11-18T11:55:27.786Z,14.60
2022-11-18T11:58:09.482Z,14.70
2022-11-18T12:00:41.902Z,14.85
2022-11-18T12:03:33.859Z,13.75
2022-11-18T12:06:00.574Z,13.48
2022-11-18T12:08:31.980Z,14.05
2022-11-18T12:11:27.311Z,14.85
2022-11-18T12:14:25.758Z,16.92
2022-11-18T12:17:14.353Z,12.50
2022-11-18T12:19:41.233Z,12.88
2022-11-18T12:22:08.043Z,11.27
2022-11-18T12:24:42.586Z,10.82
2022-11-18T12:27:34.806Z,12.27
2022-11-18T12:30:02.705Z,11.52
2022-11-18T12:32:42.076Z,10.15
2022-11-18T12:35:11.831Z,11.63
2022-11-18T12:37:43.995Z,10.48
2022-11-18T12:40:31.560Z,10.98
2022-11-18T12:42:58.285Z,10.50
2022-11-18T12:45:40.147Z,10.32
2022-11-18T12:48:28.574Z,13.43
2022-11-18T12:51:39.648Z,11.32
2022-11-18T12:54:33.848Z,11.13
2022-11-18T12:57:22.688Z,10.65
2022-11-18T12:59:49.477Z,11.00
2022-11-18T13:02:25.700Z,12.23
2022-11-18T13:05:19.239Z,10.70
2022-11-18T13:07:53.603Z,10.70
2022-11-18T13:10:24.999Z,10.77
2022-11-18T13:12:52.168Z,10.40
2022-11-18T13:15:19.597Z,11.15
2022-11-18T13:17:46.383Z,10.88
2022-11-18T13:20:24.739Z,10.85
2022-11-18T13:22:56.687Z,10.50
2022-11-18T13:25:25.330Z,10.93
2022-11-18T13:28:01.100Z,10.38
2022-11-18T13:30:28.508Z,11.07
2022-11-18T13:32:58.996Z,10.63
2022-11-18T13:35:26.570Z,10.52
2022-11-18T13:38:02.441Z,9.52
2022-11-18T13:40:31.888Z,10.98
2022-11-18T13:42:58.562Z,10.65
2022-11-18T13:45:28.158Z,10.20
2022-11-18T13:47:54.830Z,11.55
2022-11-18T13:50:32.519Z,7.85
2022-11-18T13:53:07.385Z,8.70
2022-11-18T13:55:39.323Z,8.30
2022-11-18T13:58:40.178Z,7.65
2022-11-18T14:01:26.739Z,8.52
2022-11-18T14:04:08.344Z,8.38
2022-11-18T14:06:37.728Z,9.30
2022-11-18T14:09:30.135Z,10.20
2022-11-18T14:12:04.592Z,9.10
2022-11-18T14:14:34.252Z,12.02
2022-11-18T14:17:20.420Z,13.63
2022-11-18T14:22:23.835Z,10.98
2022-11-18T14:24:59.447Z,8.93
2022-11-18T14:30:36.196Z,9.20
2022-11-18T14:33:26.247Z,10.65
2022-11-18T14:36:00.561Z,10.00
2022-11-18T14:39:04.098Z,10.13
2022-11-18T14:41:30.115Z,9.38
2022-11-18T14:43:56.968Z,8.32
2022-11-18T14:46:23.643Z,8.05
2022-11-18T14:48:50.275Z,8.40
2022-11-18T14:51:17.509Z,9.55
2022-11-18T14:53:44.617Z,10.63
2022-11-18T14:56:17.528Z,10.38
2022-11-18T14:58:44.308Z,8.50
2022-11-18T15:01:12.752Z,7.15
2022-11-18T15:03:40.448Z,6.93
2022-11-18T15:06:16.581Z,8.02
2022-11-18T15:08:47.129Z,7.50
2022-11-18T15:11:13.841Z,8.20
2022-11-18T15:13:41.303Z,8.90
2022-11-18T15:16:19.167Z,7.95
2022-11-18T15:18:48.750Z,8.05
2022-11-18T15:21:15.969Z,8.43
2022-11-18T15:23:42.781Z,7.70
2022-11-18T15:26:22.853Z,6.90
2022-11-18T15:28:51.481Z,10.35
2022-11-18T15:31:18.737Z,10.65
2022-11-18T15:33:46.522Z,8.13
2022-11-18T15:36:18.460Z,6.28
2022-11-18T15:38:45.689Z,7.68
2022-11-18T15:41:24.380Z,7.30
2022-11-18T15:43:51.576Z,7.22
2022-11-18T15:46:19.590Z,6.97
2022-11-18T15:48:47.326Z,7.32
2022-11-18T15:51:14.475Z,7.82
2022-11-18T15:53:41.279Z,7.85
2022-11-18T15:56:34.389Z,8.13
2022-11-18T15:59:06.074Z,7.30
2022-11-18T16:01:37.961Z,7.18
2022-11-18T16:04:06.352Z,6.95
2022-11-18T16:06:33.624Z,7.97
2022-11-18T16:09:00.870Z,12.57
2022-11-18T16:11:29.282Z,9.00
2022-11-18T16:14:00.271Z,8.30
2022-11-18T16:16:26.930Z,8.60
2022-11-18T16:18:58.130Z,10.20
2022-11-18T16:21:26.076Z,11.55
2022-11-18T16:23:57.361Z,13.05
2022-11-18T16:26:28.081Z,9.57
2022-11-18T16:28:54.886Z,21.38
2022-11-18T16:31:21.637Z,14.18
2022-11-18T16:33:48.378Z,20.13
2022-11-18T16:36:15.020Z,14.00
2022-11-18T16:38:41.720Z,15.00
2022-11-18T16:41:09.388Z,14.15
2022-11-18T16:43:36.062Z,10.85
2022-11-18T16:46:05.590Z,12.65
2022-11-18T16:48:34.518Z,11.35
2022-11-18T16:51:28.736Z,13.57
2022-11-18T16:53:57.862Z,10.75
2022-11-18T16:56:27.821Z,11.50
2022-11-18T16:59:03.525Z,10.98
2022-11-18T17:03:58.070Z,11.20
2022-11-18T17:06:25.306Z,10.85
2022-11-18T17:08:52.876Z,12.40
2022-11-18T17:11:19.896Z,12.98
2022-11-18T17:13:46.671Z,12.18
2022-11-18T17:16:18.440Z,12.70
2022-11-18T17:18:46.158Z,12.38
2022-11-18T17:21:15.034Z,12.73
2022-11-18T17:23:41.777Z,11.77
2022-11-18T17:26:08.854Z,12.70
2022-11-18T17:28:36.950Z,13.48
2022-11-18T17:31:11.681Z,15.60
2022-11-18T17:33:39.293Z,14.20
2022-11-18T17:36:11.544Z,12.88
2022-11-18T17:38:40.399Z,12.85
2022-11-18T17:41:09.263Z,16.67
2022-11-18T17:43:36.174Z,13.70
2022-11-18T17:46:03.469Z,12.77
2022-11-18T17:48:30.802Z,12.90
2022-11-18T17:51:05.645Z,13.15
2022-11-18T17:53:32.571Z,12.50
2022-11-18T17:56:03.740Z,13.90
2022-11-18T17:58:30.965Z,13.18
2022-11-18T18:01:05.901Z,13.88
2022-11-18T18:03:32.803Z,14.93
2022-11-18T18:06:03.918Z,13.68
2022-11-18T18:08:31.386Z,13.18
2022-11-18T18:11:13.310Z,12.55
2022-11-18T18:13:40.966Z,14.27
2022-11-18T18:16:07.789Z,27.52
2022-11-18T18:18:34.560Z,14.07
2022-11-18T18:21:01.374Z,14.02
2022-11-18T18:23:28.068Z,14.70
2022-11-18T18:25:54.789Z,14.90
2022-11-18T18:28:21.570Z,14.75
2022-11-18T18:31:00.681Z,15.20
2022-11-18T18:33:27.441Z,15.25
2022-11-18T18:36:02.016Z,16.48
2022-11-18T18:38:32.480Z,16.38
2022-11-18T18:41:04.550Z,17.60
2022-11-18T18:43:31.519Z,18.00
2022-11-18T18:46:02.408Z,18.10
2022-11-18T18:48:29.149Z,15.60
2022-11-18T18:51:06.341Z,15.52
2022-11-18T18:53:33.556Z,14.95
2022-11-18T18:56:00.430Z,14.70
2022-11-18T18:58:27.235Z,16.00
2022-11-18T19:00:58.146Z,17.05
2022-11-18T19:03:25.131Z,17.80
2022-11-18T19:06:27.423Z,19.58
2022-11-18T19:08:38.487Z,18.50
2022-11-18T19:11:06.143Z,16.30
2022-11-18T19:13:32.879Z,21.63
2022-11-18T19:16:05.100Z,25.27
2022-11-18T19:18:37.802Z,19.98
2022-11-18T19:21:04.599Z,17.73
2022-11-18T19:23:31.252Z,22.30
2022-11-18T19:26:01.201Z,24.95
2022-11-18T19:28:28.092Z,25.17
2022-11-18T19:30:54.804Z,25.98
2022-11-18T19:33:21.495Z,22.75
2022-11-18T19:35:48.188Z,20.95
2022-11-18T19:38:14.857Z,19.15
2022-11-18T19:40:41.538Z,17.92
2022-11-18T19:43:08.242Z,16.67
2022-11-18T19:45:35.117Z,17.33
2022-11-18T19:48:01.808Z,17.73
2022-11-18T19:50:28.651Z,18.80
2022-11-18T19:52:56.447Z,18.92
2022-11-18T19:55:23.164Z,20.15
2022-11-18T19:57:49.857Z,20.42
2022-11-18T20:00:17.495Z,21.50
2022-11-18T20:02:44.152Z,19.65
2022-11-18T20:05:10.830Z,20.80
2022-11-18T20:07:38.002Z,19.67
2022-11-18T20:10:05.323Z,16.33
2022-11-18T20:12:31.950Z,16.05
2022-11-18T20:14:58.606Z,17.17
2022-11-18T20:17:25.252Z,16.52
2022-11-18T20:19:52.012Z,16.08
2022-11-18T20:22:18.741Z,15.77
2022-11-18T20:24:45.398Z,17.15
2022-11-18T20:27:12.087Z,16.33
2022-11-18T20:29:38.774Z,15.48
2022-11-18T20:32:05.619Z,15.32
2022-11-18T20:34:32.269Z,16.23
2022-11-18T20:36:58.985Z,15.45
2022-11-18T20:39:25.655Z,14.27
2022-11-18T20:41:52.297Z,15.93
2022-11-18T20:44:18.976Z,16.95
2022-11-18T20:46:45.664Z,17.40
2022-11-18T20:49:12.404Z,16.50
2022-11-18T20:51:39.121Z,17.77
2022-11-18T20:54:05.813Z,19.33
2022-11-18T20:56:32.510Z,19.05
2022-11-18T20:58:59.250Z,21.27
2022-11-18T21:01:28.652Z,24.13
2022-11-18T21:04:00.531Z,27.40
2022-11-18T21:06:30.011Z,24.95
2022-11-18T21:08:59.140Z,26.15
2022-11-18T21:11:26.300Z,18.83
2022-11-18T21:13:52.985Z,16.15
2022-11-18T21:16:20.999Z,15.98
2022-11-18T21:18:48.032Z,14.75
2022-11-18T21:21:14.819Z,13.68
2022-11-18T21:23:41.470Z,13.25
2022-11-18T21:26:13.193Z,12.90
2022-11-18T21:28:40.256Z,12.23
2022-11-18T21:31:08.863Z,11.40
2022-11-18T21:33:35.549Z,12.48
2022-11-18T21:36:02.200Z,13.55
2022-11-18T21:38:28.824Z,15.75
2022-11-18T21:40:55.471Z,15.23
2022-11-18T21:43:32.839Z,15.93
2022-11-18T21:46:14.303Z,16.58
2022-11-18T21:48:41.198Z,17.25
2022-11-18T21:51:10.864Z,19.92
2022-11-18T21:53:37.696Z,19.20
2022-11-18T21:56:11.784Z,19.90
2022-11-18T21:58:39.775Z,21.80
2022-11-18T22:01:19.119Z,25.38
2022-11-18T22:03:55.344Z,23.52
2022-11-18T22:06:23.835Z,19.88
2022-11-18T22:08:51.000Z,18.42
2022-11-18T22:11:18.014Z,19.92
2022-11-18T22:13:44.604Z,21.48
2022-11-18T22:16:13.921Z,19.48
2022-11-18T22:18:42.765Z,16.73
2022-11-18T22:21:14.771Z,21.35
2022-11-18T22:23:41.898Z,18.45
2022-11-18T22:26:12.494Z,19.65
2022-11-18T22:28:39.343Z,27.98
2022-11-18T22:31:11.671Z,28.20
2022-11-18T22:33:39.235Z,30.27
2022-11-18T22:36:08.772Z,24.60
2022-11-18T22:38:35.431Z,24.45
2022-11-18T22:41:04.085Z,23.48
2022-11-18T22:43:31.966Z,20.42
2022-11-18T22:46:06.873Z,17.33
2022-11-18T22:48:34.793Z,17.65
2022-11-18T22:51:04.441Z,17.77
2022-11-18T22:53:32.488Z,15.35
2022-11-18T22:56:11.127Z,16.10
2022-11-18T22:58:37.907Z,14.70
2022-11-18T23:01:10.228Z,13.77
2022-11-18T23:03:37.193Z,14.23
2022-11-18T23:06:04.872Z,13.60
2022-11-18T23:08:34.322Z,13.68
2022-11-18T23:11:12.877Z,14.27
2022-11-18T23:13:40.219Z,12.98
2022-11-18T23:16:07.142Z,13.73
2022-11-18T23:18:33.878Z,13.48
2022-11-18T23:21:02.363Z,13.85
2022-11-18T23:23:30.356Z,14.05
2022-11-18T23:26:23.469Z,14.05
2022-11-18T23:28:50.775Z,13.73
2022-11-18T23:31:20.008Z,14.73
2022-11-18T23:33:47.411Z,14.68
2022-11-18T23:36:16.225Z,14.25
2022-11-18T23:38:43.225Z,16.95
2022-11-18T23:41:12.619Z,16.60
2022-11-18T23:43:40.423Z,15.95
2022-11-18T23:46:08.993Z,17.92
2022-11-18T23:48:40.475Z,17.25
2022-11-18T23:51:13.024Z,14.02
2022-11-18T23:53:40.503Z,15.20
2022-11-18T23:56:12.834Z,15.48
2022-11-18T23:58:41.741Z,14.82
